createdAt,value
2019-01-30T00:00:32.572Z,5.27
2019-01-30T00:03:00.844Z,5.50
2019-01-30T00:05:29.053Z,5.57
2019-01-30T00:07:57.253Z,4.93
2019-01-30T00:10:25.457Z,5.03
2019-01-30T00:12:53.656Z,5.00
2019-01-30T00:15:21.864Z,4.47
2019-01-30T00:17:50.068Z,5.70
2019-01-30T00:20:18.292Z,5.40
2019-01-30T00:22:46.496Z,5.43
2019-01-30T00:25:15.380Z,7.07
2019-01-30T00:27:43.580Z,5.87
2019-01-30T00:30:23.292Z,5.97
2019-01-30T00:32:51.566Z,6.27
2019-01-30T00:35:19.784Z,7.30
2019-01-30T00:37:47.992Z,6.67
2019-01-30T00:40:20.812Z,6.77
2019-01-30T00:42:49.029Z,7.13
2019-01-30T00:45:19.832Z,7.03
2019-01-30T00:47:48.297Z,7.10
2019-01-30T00:50:19.328Z,6.40
2019-01-30T00:52:47.535Z,7.07
2019-01-30T00:55:15.747Z,7.60
2019-01-30T00:57:43.953Z,8.20
2019-01-30T01:00:24.341Z,8.23
2019-01-30T01:02:52.537Z,8.37
2019-01-30T01:05:22.117Z,8.70
2019-01-30T01:07:50.323Z,7.90
2019-01-30T01:10:21.361Z,8.93
2019-01-30T01:12:49.572Z,8.87
2019-01-30T01:15:17.784Z,9.43
2019-01-30T01:17:46.000Z,9.53
2019-01-30T01:20:19.680Z,9.07
2019-01-30T01:22:47.884Z,10.90
2019-01-30T01:25:18.037Z,10.53
2019-01-30T01:27:47.088Z,10.20
2019-01-30T01:30:25.468Z,11.43
2019-01-30T01:32:54.035Z,11.83
2019-01-30T01:35:22.240Z,11.60
2019-01-30T01:37:50.697Z,12.63
2019-01-30T01:40:18.912Z,12.83
2019-01-30T01:42:47.124Z,12.97
2019-01-30T01:45:21.258Z,13.93
2019-01-30T01:47:49.481Z,13.07
2019-01-30T01:50:20.524Z,14.30
2019-01-30T01:52:48.732Z,14.07
2019-01-30T01:55:17.061Z,14.53
2019-01-30T01:57:45.246Z,13.53
2019-01-30T02:00:16.857Z,14.60
2019-01-30T02:02:45.076Z,14.57
2019-01-30T02:05:16.684Z,14.23
2019-01-30T02:07:44.910Z,15.43
2019-01-30T02:10:16.414Z,15.43
2019-01-30T02:12:44.616Z,14.37
2019-01-30T02:15:16.090Z,15.77
2019-01-30T02:17:44.332Z,14.27
2019-01-30T02:20:30.269Z,14.30
2019-01-30T02:22:58.489Z,15.13
2019-01-30T02:25:26.696Z,15.03
2019-01-30T02:27:54.908Z,15.07
2019-01-30T02:30:28.703Z,14.70
2019-01-30T02:32:56.885Z,14.23
2019-01-30T02:35:25.104Z,15.17
2019-01-30T02:37:53.335Z,15.17
2019-01-30T02:40:23.460Z,16.93
2019-01-30T02:42:51.673Z,14.90
2019-01-30T02:45:23.093Z,16.13
2019-01-30T02:47:51.305Z,16.27
2019-01-30T02:50:20.659Z,15.13
2019-01-30T02:52:48.893Z,15.50
2019-01-30T02:55:19.598Z,15.73
2019-01-30T02:57:47.819Z,15.73
2019-01-30T03:00:28.232Z,16.27
2019-01-30T03:02:56.453Z,15.07
2019-01-30T03:05:24.652Z,15.00
2019-01-30T03:07:52.870Z,15.27
2019-01-30T03:10:23.612Z,14.73
2019-01-30T03:12:51.837Z,15.23
2019-01-30T03:15:20.912Z,15.27
2019-01-30T03:17:49.140Z,13.90
2019-01-30T03:20:36.785Z,13.03
2019-01-30T03:23:04.996Z,14.13
2019-01-30T03:25:33.219Z,13.73
2019-01-30T03:28:01.431Z,13.47
2019-01-30T03:30:32.186Z,12.40
2019-01-30T03:33:00.401Z,13.07
2019-01-30T03:35:28.647Z,13.07
2019-01-30T03:37:56.847Z,12.73
2019-01-30T03:40:25.128Z,15.07
2019-01-30T03:42:53.368Z,17.07
2019-01-30T03:45:24.004Z,25.13
2019-01-30T03:47:52.382Z,15.53
2019-01-30T03:50:20.601Z,12.33
2019-01-30T03:52:48.805Z,13.50
2019-01-30T03:55:20.106Z,11.77
2019-01-30T03:57:48.370Z,13.50
2019-01-30T04:00:40.625Z,12.43
2019-01-30T04:03:08.830Z,10.53
2019-01-30T04:05:37.039Z,12.00
2019-01-30T04:08:05.253Z,10.40
2019-01-30T04:10:33.462Z,12.87
2019-01-30T04:13:01.669Z,13.03
2019-01-30T04:15:29.889Z,12.60
2019-01-30T04:17:58.109Z,12.97
2019-01-30T04:20:26.317Z,12.57
2019-01-30T04:22:54.785Z,12.40
2019-01-30T04:25:22.990Z,12.60
2019-01-30T04:27:51.194Z,11.93
2019-01-30T04:30:26.641Z,12.50
2019-01-30T04:32:54.844Z,13.53
2019-01-30T04:35:23.049Z,11.90
2019-01-30T04:37:51.265Z,10.83
2019-01-30T04:40:22.022Z,11.33
2019-01-30T04:42:50.373Z,10.83
2019-01-30T04:45:21.226Z,11.23
2019-01-30T04:47:49.449Z,11.10
2019-01-30T04:50:17.651Z,11.70
2019-01-30T04:52:45.865Z,10.77
2019-01-30T04:55:14.147Z,10.63
2019-01-30T04:57:42.352Z,10.67
2019-01-30T05:00:17.254Z,11.33
2019-01-30T05:02:45.464Z,10.80
2019-01-30T05:05:13.665Z,10.50
2019-01-30T05:07:41.874Z,50.27
2019-01-30T05:10:12.623Z,31.23
2019-01-30T05:12:40.813Z,14.13
2019-01-30T05:15:12.284Z,11.27
2019-01-30T05:17:40.486Z,10.93
2019-01-30T05:20:12.197Z,9.90
2019-01-30T05:22:40.401Z,11.27
2019-01-30T05:25:11.052Z,10.03
2019-01-30T05:27:39.514Z,10.80
2019-01-30T05:30:16.636Z,10.20
2019-01-30T05:32:44.841Z,10.53
2019-01-30T05:35:13.046Z,20.07
2019-01-30T05:37:41.261Z,14.00
2019-01-30T05:40:12.724Z,12.23
2019-01-30T05:43:00.373Z,10.27
2019-01-30T05:45:28.608Z,8.20
2019-01-30T05:47:56.878Z,9.77
2019-01-30T05:50:25.135Z,8.87
2019-01-30T05:52:53.342Z,10.00
2019-01-30T05:55:21.660Z,10.70
2019-01-30T05:57:49.866Z,10.30
2019-01-30T06:00:28.531Z,10.07
2019-01-30T06:02:56.742Z,10.40
2019-01-30T06:05:24.943Z,9.70
2019-01-30T06:07:53.165Z,11.80
2019-01-30T06:10:21.474Z,10.43
2019-01-30T06:12:49.688Z,10.37
2019-01-30T06:15:20.025Z,9.10
2019-01-30T06:17:48.242Z,10.40
2019-01-30T06:20:24.868Z,9.87
2019-01-30T06:22:54.421Z,8.80
2019-01-30T06:25:22.618Z,9.70
2019-01-30T06:27:50.854Z,9.60
2019-01-30T06:30:22.287Z,8.97
2019-01-30T06:32:50.489Z,9.67
2019-01-30T06:35:18.713Z,8.80
2019-01-30T06:37:46.897Z,8.83
2019-01-30T06:40:18.598Z,9.53
2019-01-30T06:42:46.814Z,9.33
2019-01-30T06:45:15.004Z,9.43
2019-01-30T06:47:43.217Z,9.07
2019-01-30T06:50:14.154Z,12.93
2019-01-30T06:52:42.374Z,15.10
2019-01-30T06:55:10.585Z,30.23
2019-01-30T06:57:38.789Z,13.40
2019-01-30T07:00:15.924Z,19.37
2019-01-30T07:02:44.140Z,15.23
2019-01-30T07:05:12.353Z,24.50
2019-01-30T07:07:40.576Z,13.13
2019-01-30T07:10:17.829Z,17.00
2019-01-30T07:12:46.056Z,11.80
2019-01-30T07:15:14.352Z,12.13
2019-01-30T07:17:42.564Z,13.17
2019-01-30T07:20:14.008Z,11.00
2019-01-30T07:22:42.223Z,10.40
2019-01-30T07:25:13.732Z,10.33
2019-01-30T07:27:41.936Z,13.40
2019-01-30T07:30:22.043Z,13.00
2019-01-30T07:32:50.258Z,16.10
2019-01-30T07:35:18.458Z,26.03
2019-01-30T07:37:46.680Z,15.73
2019-01-30T07:40:16.916Z,13.53
2019-01-30T07:42:45.141Z,11.97
2019-01-30T07:45:19.405Z,12.57
2019-01-30T07:47:47.613Z,10.57
2019-01-30T07:50:15.828Z,10.43
2019-01-30T07:52:44.242Z,10.57
2019-01-30T07:55:16.790Z,10.50
2019-01-30T07:57:45.824Z,10.57
2019-01-30T08:00:25.620Z,10.43
2019-01-30T08:02:53.907Z,12.37
2019-01-30T08:05:22.705Z,12.90
2019-01-30T08:07:51.616Z,14.33
2019-01-30T08:10:19.838Z,14.80
2019-01-30T08:12:48.045Z,14.90
2019-01-30T08:15:19.374Z,15.27
2019-01-30T08:17:47.673Z,16.57
2019-01-30T08:20:18.198Z,15.53
2019-01-30T08:22:46.417Z,23.10
2019-01-30T08:25:20.023Z,18.17
2019-01-30T08:27:48.481Z,22.43
2019-01-30T08:30:22.609Z,20.00
2019-01-30T08:32:50.709Z,17.77
2019-01-30T08:35:21.022Z,21.40
2019-01-30T08:37:49.241Z,20.87
2019-01-30T08:40:17.461Z,18.47
2019-01-30T08:42:45.672Z,19.70
2019-01-30T08:45:20.355Z,20.07
2019-01-30T08:47:49.651Z,19.20
2019-01-30T08:50:17.850Z,18.93
2019-01-30T08:52:46.065Z,19.30
2019-01-30T08:55:15.106Z,18.20
2019-01-30T08:57:43.322Z,19.10
2019-01-30T09:00:14.797Z,18.70
2019-01-30T09:02:43.044Z,17.30
2019-01-30T09:05:15.112Z,15.67
2019-01-30T09:07:44.598Z,17.73
2019-01-30T09:10:16.840Z,17.03
2019-01-30T09:12:45.053Z,16.90
2019-01-30T09:15:16.448Z,15.57
2019-01-30T09:17:44.736Z,17.53
2019-01-30T09:20:18.367Z,16.13
2019-01-30T09:22:46.578Z,18.40
2019-01-30T09:25:20.646Z,17.50
2019-01-30T09:27:49.143Z,17.27
2019-01-30T09:30:20.790Z,17.97
2019-01-30T09:32:49.008Z,18.47
2019-01-30T09:35:17.324Z,18.93
2019-01-30T09:37:45.512Z,18.87
2019-01-30T09:40:17.261Z,19.87
2019-01-30T09:42:45.863Z,20.10
2019-01-30T09:45:17.648Z,21.33
2019-01-30T09:47:45.902Z,21.10
2019-01-30T09:50:17.555Z,20.60
2019-01-30T09:52:45.760Z,20.67
2019-01-30T09:55:16.312Z,20.27
2019-01-30T09:57:44.516Z,19.80
2019-01-30T10:00:21.737Z,20.67
2019-01-30T10:02:49.945Z,25.27
2019-01-30T10:05:18.149Z,18.17
2019-01-30T10:07:46.445Z,19.90
2019-01-30T10:10:17.946Z,20.97
2019-01-30T10:12:46.164Z,20.33
2019-01-30T10:15:17.878Z,20.00
2019-01-30T10:17:46.099Z,19.17
2019-01-30T10:20:18.033Z,18.53
2019-01-30T10:22:46.252Z,19.80
2019-01-30T10:25:14.476Z,18.57
2019-01-30T10:27:42.765Z,18.53
2019-01-30T10:30:25.616Z,18.07
2019-01-30T10:32:53.832Z,18.17
2019-01-30T10:35:22.052Z,18.07
2019-01-30T10:37:50.257Z,18.70
2019-01-30T10:40:21.293Z,18.87
2019-01-30T10:42:50.773Z,19.30
2019-01-30T10:45:19.039Z,21.30
2019-01-30T10:47:47.250Z,18.60
2019-01-30T10:50:21.252Z,19.00
2019-01-30T10:52:49.461Z,21.27
2019-01-30T10:55:23.464Z,19.40
2019-01-30T10:57:54.913Z,19.13
2019-01-30T11:00:28.806Z,19.30
2019-01-30T11:02:57.013Z,20.00
2019-01-30T11:05:25.241Z,20.03
2019-01-30T11:07:53.444Z,20.27
2019-01-30T11:10:21.733Z,20.03
2019-01-30T11:12:49.941Z,18.57
2019-01-30T11:15:24.476Z,18.63
2019-01-30T11:17:52.685Z,18.87
2019-01-30T11:20:22.184Z,20.60
2019-01-30T11:22:53.524Z,20.97
2019-01-30T11:25:24.235Z,20.43
2019-01-30T11:27:52.453Z,20.50
2019-01-30T11:30:21.505Z,20.90
2019-01-30T11:32:49.708Z,21.33
2019-01-30T11:35:17.940Z,22.27
2019-01-30T11:37:46.158Z,21.80
2019-01-30T11:40:20.028Z,23.83
2019-01-30T11:42:48.275Z,22.47
2019-01-30T11:45:20.061Z,22.10
2019-01-30T11:47:48.377Z,23.10
2019-01-30T11:50:17.749Z,22.37
2019-01-30T11:52:45.952Z,23.97
2019-01-30T11:55:17.017Z,25.13
2019-01-30T11:57:45.225Z,26.10
2019-01-30T12:00:38.381Z,25.97
2019-01-30T12:03:06.601Z,26.20
2019-01-30T12:05:34.812Z,27.00
2019-01-30T12:08:03.028Z,27.77
2019-01-30T12:10:31.244Z,27.87
2019-01-30T12:12:59.546Z,27.10
2019-01-30T12:15:28.711Z,29.17
2019-01-30T12:17:56.919Z,31.03
2019-01-30T12:20:25.141Z,31.50
2019-01-30T12:22:54.128Z,31.67
2019-01-30T12:25:23.269Z,30.10
2019-01-30T12:27:51.493Z,31.37
2019-01-30T12:30:30.387Z,30.33
2019-01-30T12:32:58.591Z,29.77
2019-01-30T12:35:26.793Z,29.00
2019-01-30T12:37:55.248Z,28.23
2019-01-30T12:40:25.366Z,29.70
2019-01-30T12:42:53.577Z,28.80
2019-01-30T12:45:30.228Z,29.30
2019-01-30T12:47:58.457Z,30.10
2019-01-30T12:50:26.664Z,29.43
2019-01-30T12:52:54.873Z,30.27
2019-01-30T12:55:23.109Z,29.93
2019-01-30T12:57:51.306Z,29.70
2019-01-30T13:00:23.241Z,31.60
2019-01-30T13:02:51.444Z,31.77
2019-01-30T13:05:21.481Z,30.87
2019-01-30T13:07:49.692Z,28.83
2019-01-30T13:10:19.406Z,32.83
2019-01-30T13:12:48.897Z,34.20
2019-01-30T13:15:23.143Z,34.03
2019-01-30T13:17:51.360Z,32.00
2019-01-30T13:20:22.953Z,30.27
2019-01-30T13:22:51.248Z,29.27
2019-01-30T13:25:25.297Z,29.97
2019-01-30T13:27:53.520Z,30.00
2019-01-30T13:30:24.916Z,30.17
2019-01-30T13:32:53.128Z,30.50
2019-01-30T13:35:21.336Z,31.13
2019-01-30T13:37:49.542Z,31.97
2019-01-30T13:40:21.160Z,29.77
2019-01-30T13:42:49.364Z,29.93
2019-01-30T13:45:17.576Z,29.00
2019-01-30T13:47:45.812Z,28.47
2019-01-30T13:50:23.009Z,27.90
2019-01-30T13:52:51.216Z,28.93
2019-01-30T13:55:19.421Z,26.00
2019-01-30T13:57:47.899Z,27.23
2019-01-30T14:00:19.503Z,25.33
2019-01-30T14:02:47.721Z,26.03
2019-01-30T14:05:16.244Z,25.77
2019-01-30T14:07:44.659Z,26.70
2019-01-30T14:10:13.109Z,27.80
2019-01-30T14:12:41.601Z,27.37
2019-01-30T14:15:13.261Z,27.67
2019-01-30T14:17:41.581Z,28.43
2019-01-30T14:20:12.260Z,28.30
2019-01-30T14:22:40.464Z,28.17
2019-01-30T14:25:11.803Z,29.30
2019-01-30T14:27:40.048Z,29.33
2019-01-30T14:30:20.401Z,31.97
2019-01-30T14:32:48.602Z,31.80
2019-01-30T14:35:17.749Z,33.47
2019-01-30T14:37:46.011Z,33.23
2019-01-30T14:40:20.158Z,33.03
2019-01-30T14:42:48.400Z,34.40
2019-01-30T14:45:19.225Z,32.17
2019-01-30T14:47:50.279Z,34.97
2019-01-30T14:50:20.826Z,34.90
2019-01-30T14:52:49.027Z,35.40
2019-01-30T14:55:18.093Z,38.40
2019-01-30T14:57:46.313Z,42.87
2019-01-30T15:00:20.540Z,44.07
2019-01-30T15:02:48.859Z,46.43
2019-01-30T15:05:22.286Z,49.13
2019-01-30T15:07:49.136Z,51.63
2019-01-30T15:10:20.448Z,52.53
2019-01-30T15:12:48.988Z,56.53
2019-01-30T15:15:23.304Z,54.83
2019-01-30T15:17:51.600Z,59.73
2019-01-30T15:20:22.329Z,60.27
2019-01-30T15:22:50.533Z,58.83
2019-01-30T15:25:23.193Z,59.93
2019-01-30T15:27:51.409Z,58.97
2019-01-30T15:30:23.073Z,63.10
2019-01-30T15:32:51.549Z,61.13
2019-01-30T15:35:19.774Z,63.13
2019-01-30T15:37:48.000Z,59.80
2019-01-30T15:40:19.941Z,57.67
2019-01-30T15:42:49.326Z,59.07
2019-01-30T15:45:21.241Z,59.73
2019-01-30T15:47:49.469Z,60.63
2019-01-30T15:50:32.388Z,59.00
2019-01-30T15:53:00.818Z,59.10
2019-01-30T15:55:29.049Z,57.37
2019-01-30T15:58:01.859Z,58.43
2019-01-30T16:00:36.292Z,56.80
2019-01-30T16:03:06.240Z,59.07
2019-01-30T16:05:44.595Z,61.27
2019-01-30T16:08:04.478Z,62.00
2019-01-30T16:10:32.752Z,65.23
2019-01-30T16:13:00.966Z,60.50
2019-01-30T16:15:32.461Z,61.20
2019-01-30T16:18:00.744Z,57.07
2019-01-30T16:20:28.953Z,52.87
2019-01-30T16:22:57.169Z,50.77
2019-01-30T16:25:25.411Z,50.97
2019-01-30T16:27:53.612Z,50.00
2019-01-30T16:30:24.761Z,50.67
2019-01-30T16:32:53.117Z,53.60
2019-01-30T16:35:27.508Z,54.47
2019-01-30T16:37:55.729Z,55.83
2019-01-30T16:40:29.045Z,59.17
2019-01-30T16:42:57.301Z,58.33
2019-01-30T16:45:31.117Z,57.97
2019-01-30T16:47:59.517Z,49.90
2019-01-30T16:50:27.732Z,49.07
2019-01-30T16:52:56.027Z,57.85
2019-01-30T16:55:24.452Z,48.50
2019-01-30T16:57:52.777Z,47.37
2019-01-30T17:00:27.230Z,45.07
2019-01-30T17:02:57.276Z,45.23
2019-01-30T17:05:25.556Z,43.23
2019-01-30T17:07:53.786Z,41.90
2019-01-30T17:10:21.997Z,41.93
2019-01-30T17:12:50.208Z,43.17
2019-01-30T17:15:24.364Z,41.07
2019-01-30T17:17:52.569Z,40.83
2019-01-30T17:20:24.057Z,41.27
2019-01-30T17:22:52.268Z,40.17
2019-01-30T17:25:20.468Z,38.37
2019-01-30T17:27:48.710Z,38.50
2019-01-30T17:30:23.028Z,38.03
2019-01-30T17:32:51.237Z,37.53
2019-01-30T17:35:19.457Z,34.83
2019-01-30T17:37:47.669Z,34.90
2019-01-30T17:40:24.033Z,34.30
2019-01-30T17:42:52.238Z,36.43
2019-01-30T17:45:20.441Z,37.50
2019-01-30T17:47:48.673Z,35.07
2019-01-30T17:50:22.936Z,39.53
2019-01-30T17:52:51.172Z,38.63
2019-01-30T17:55:19.365Z,40.03
2019-01-30T17:57:47.578Z,40.00
2019-01-30T18:00:35.585Z,39.77
2019-01-30T18:03:03.805Z,39.67
2019-01-30T18:05:32.029Z,37.33
2019-01-30T18:08:00.237Z,41.17
2019-01-30T18:10:28.458Z,42.53
2019-01-30T18:12:56.680Z,41.40
2019-01-30T18:15:24.893Z,40.07
2019-01-30T18:17:54.377Z,42.53
2019-01-30T18:20:23.991Z,42.10
2019-01-30T18:22:52.222Z,43.77
2019-01-30T18:25:20.895Z,43.83
2019-01-30T18:27:49.160Z,44.73
2019-01-30T18:30:26.604Z,43.97
2019-01-30T18:32:54.889Z,46.53
2019-01-30T18:35:23.102Z,45.70
2019-01-30T18:37:51.323Z,43.23
2019-01-30T18:40:25.717Z,44.07
2019-01-30T18:42:53.961Z,46.00
2019-01-30T18:45:24.779Z,46.10
2019-01-30T18:47:54.143Z,58.13
2019-01-30T18:50:29.398Z,46.80
2019-01-30T18:52:57.629Z,40.40
2019-01-30T18:55:25.841Z,43.70
2019-01-30T18:57:57.152Z,45.60
2019-01-30T19:00:31.296Z,47.20
2019-01-30T19:03:01.589Z,47.13
2019-01-30T19:05:31.837Z,48.57
2019-01-30T19:08:00.139Z,47.40
2019-01-30T19:10:28.357Z,50.40
2019-01-30T19:12:56.575Z,48.43
2019-01-30T19:15:30.806Z,47.53
2019-01-30T19:17:59.091Z,48.97
2019-01-30T19:20:34.266Z,51.10
2019-01-30T19:23:02.480Z,51.93
2019-01-30T19:25:30.719Z,50.33
2019-01-30T19:27:58.955Z,49.57
2019-01-30T19:30:30.277Z,46.90
2019-01-30T19:32:58.497Z,47.53
2019-01-30T19:35:26.709Z,48.63
2019-01-30T19:37:54.941Z,43.93
2019-01-30T19:40:23.162Z,49.03
2019-01-30T19:42:51.390Z,50.43
2019-01-30T19:45:22.211Z,45.40
2019-01-30T19:47:50.433Z,48.63
2019-01-30T19:50:25.369Z,48.03
2019-01-30T19:52:54.401Z,43.03
2019-01-30T19:55:22.613Z,42.97
2019-01-30T19:57:50.842Z,33.30
2019-01-30T20:00:30.497Z,31.57
2019-01-30T20:03:00.945Z,30.60
2019-01-30T20:05:29.189Z,31.13
2019-01-30T20:07:57.413Z,26.23
2019-01-30T20:10:28.892Z,25.97
2019-01-30T20:12:57.106Z,23.50
2019-01-30T20:15:25.405Z,23.30
2019-01-30T20:17:53.709Z,22.27
2019-01-30T20:20:21.898Z,22.57
2019-01-30T20:22:50.231Z,20.07
2019-01-30T20:25:31.016Z,19.73
2019-01-30T20:27:59.219Z,19.63
2019-01-30T20:30:29.029Z,20.27
2019-01-30T20:32:57.397Z,20.97
2019-01-30T20:35:25.601Z,19.67
2019-01-30T20:37:53.821Z,19.23
2019-01-30T20:40:25.345Z,18.50
2019-01-30T20:42:53.765Z,20.03
2019-01-30T20:45:32.980Z,21.20
2019-01-30T20:47:51.980Z,19.03
2019-01-30T20:50:23.512Z,19.83
2019-01-30T20:52:51.716Z,23.00
2019-01-30T20:55:19.945Z,21.37
2019-01-30T20:57:48.169Z,23.07
2019-01-30T21:00:19.470Z,21.87
2019-01-30T21:02:47.690Z,18.90
2019-01-30T21:05:15.901Z,15.43
2019-01-30T21:07:44.132Z,19.67
2019-01-30T21:10:21.646Z,17.27
2019-01-30T21:12:49.867Z,16.93
2019-01-30T21:15:18.064Z,17.80
2019-01-30T21:17:46.284Z,18.27
2019-01-30T21:20:17.125Z,17.80
2019-01-30T21:22:45.341Z,15.60
2019-01-30T21:25:21.783Z,17.17
2019-01-30T21:27:50.751Z,18.23
2019-01-30T21:30:25.360Z,16.90
2019-01-30T21:32:53.593Z,18.02
2019-01-30T21:35:21.809Z,16.27
2019-01-30T21:37:50.028Z,15.63
2019-01-30T21:40:20.178Z,16.40
2019-01-30T21:42:49.358Z,17.40
2019-01-30T21:45:20.611Z,16.27
2019-01-30T21:47:48.821Z,15.37
2019-01-30T21:50:17.113Z,16.93
2019-01-30T21:52:45.341Z,15.13
2019-01-30T21:55:16.984Z,13.17
2019-01-30T21:57:45.256Z,15.13
2019-01-30T22:00:19.726Z,15.83
2019-01-30T22:02:47.944Z,13.90
2019-01-30T22:05:16.917Z,14.60
2019-01-30T22:07:45.146Z,14.27
2019-01-30T22:10:16.846Z,14.43
2019-01-30T22:12:45.076Z,15.07
2019-01-30T22:15:16.337Z,14.93
2019-01-30T22:17:44.640Z,14.47
2019-01-30T22:20:16.174Z,14.63
2019-01-30T22:22:44.380Z,13.40
2019-01-30T22:25:20.413Z,13.47
2019-01-30T22:27:47.689Z,13.70
2019-01-30T22:30:27.444Z,13.33
2019-01-30T22:32:55.660Z,13.13
2019-01-30T22:35:23.869Z,13.50
2019-01-30T22:37:52.093Z,11.47
2019-01-30T22:40:20.405Z,14.13
2019-01-30T22:42:48.630Z,13.70
2019-01-30T22:45:19.670Z,12.70
2019-01-30T22:47:47.883Z,14.40
2019-01-30T22:50:18.537Z,12.47
2019-01-30T22:52:46.765Z,11.90
2019-01-30T22:55:21.125Z,14.77
2019-01-30T22:57:51.003Z,12.27
2019-01-30T23:00:52.632Z,10.83
2019-01-30T23:03:26.577Z,12.53
2019-01-30T23:06:07.356Z,12.00
2019-01-30T23:11:57.743Z,12.87
2019-01-30T23:14:26.065Z,12.07
2019-01-30T23:17:15.492Z,12.50
2019-01-30T23:19:46.973Z,12.83
2019-01-30T23:22:26.669Z,13.07
2019-01-30T23:25:09.924Z,12.27
2019-01-30T23:27:41.407Z,11.17
2019-01-30T23:30:15.541Z,12.23
2019-01-30T23:32:56.009Z,12.77
2019-01-30T23:35:45.616Z,12.23
2019-01-30T23:38:38.200Z,10.70
2019-01-30T23:41:26.227Z,11.13
2019-01-30T23:44:17.574Z,11.20
2019-01-30T23:46:54.770Z,11.57
2019-01-30T23:49:50.681Z,11.23
2019-01-30T23:52:43.178Z,11.20
2019-01-30T23:55:30.936Z,10.67
2019-01-30T23:58:11.042Z,12.40
